THY3135 LTBS-LTFJ
Flight info
| Callsign | THY3135 |
|---|---|
| Flight time | 1h 0m |
| Altitude | 36000 |
| Route | RIVBU DCT BAGLU DCT ATGIT UT30 SIVKU UL610 ETAMP |
| Aircraft | A321/M-SDE3FGHIRWY/LB1 |
Departure
| Time | 2026-04-24 13:37 |
|---|---|
| Airport | Dalaman International Airport (LTBS) |
Arrival
| Time | 2026-04-24 14:37 |
|---|---|
| Airport | Istanbul Sabiha Gökçen International Airport (LTFJ) |
| Time | Latitude | Longitude | Altitude | Speed | Heading |
|---|---|---|---|---|---|
| 2026-04-24 13:12 | 36.72271 | 28.79056 | 12 ft | 0 kts | 285° |
| 2026-04-24 13:29 | 36.72268 | 28.79073 | 12 ft | 4 kts | 276° |
| 2026-04-24 13:30 | 36.72269 | 28.79106 | 12 ft | 4 kts | 251° |
| 2026-04-24 13:30 | 36.72281 | 28.79134 | 13 ft | 4 kts | 224° |
| 2026-04-24 13:30 | 36.72302 | 28.79153 | 13 ft | 4 kts | 201° |
| 2026-04-24 13:30 | 36.72311 | 28.79157 | 14 ft | 0 kts | 195° |
| 2026-04-24 13:33 | 36.72310 | 28.79157 | 14 ft | 1 kts | 186° |
| 2026-04-24 13:34 | 36.72301 | 28.79194 | 12 ft | 10 kts | 107° |
| 2026-04-24 13:34 | 36.72280 | 28.79285 | 12 ft | 12 kts | 102° |
| 2026-04-24 13:34 | 36.72305 | 28.79373 | 12 ft | 12 kts | 30° |
| 2026-04-24 13:34 | 36.72391 | 28.79401 | 12 ft | 14 kts | 12° |
| 2026-04-24 13:35 | 36.72486 | 28.79433 | 12 ft | 15 kts | 18° |
| 2026-04-24 13:35 | 36.72587 | 28.79474 | 12 ft | 16 kts | 14° |
| 2026-04-24 13:35 | 36.72643 | 28.79546 | 12 ft | 0 kts | 97° |
| 2026-04-24 13:36 | 36.72640 | 28.79566 | 12 ft | 10 kts | 102° |
| 2026-04-24 13:36 | 36.72614 | 28.79672 | 12 ft | 6 kts | 115° |
| 2026-04-24 13:36 | 36.72566 | 28.79677 | 12 ft | 8 kts | 191° |
| 2026-04-24 13:36 | 36.72497 | 28.79655 | 12 ft | 17 kts | 195° |
| 2026-04-24 13:37 | 36.72160 | 28.79542 | 12 ft | 88 kts | 195° |
| 2026-04-24 13:37 | 36.71351 | 28.79263 | 13 ft | 150 kts | 195° |
| 2026-04-24 13:37 | 36.70236 | 28.78895 | 394 ft | 169 kts | 196° |
| 2026-04-24 13:37 | 36.69100 | 28.78503 | 1139 ft | 170 kts | 197° |
| 2026-04-24 13:38 | 36.67955 | 28.78097 | 1846 ft | 173 kts | 197° |
| 2026-04-24 13:38 | 36.66770 | 28.77693 | 2244 ft | 188 kts | 197° |
| 2026-04-24 13:38 | 36.65420 | 28.77234 | 2477 ft | 209 kts | 196° |
| 2026-04-24 13:38 | 36.63953 | 28.76735 | 2622 ft | 234 kts | 196° |
| 2026-04-24 13:39 | 36.62294 | 28.76170 | 2954 ft | 256 kts | 196° |
| 2026-04-24 13:39 | 36.60559 | 28.75584 | 3657 ft | 261 kts | 195° |
| 2026-04-24 13:39 | 36.58744 | 28.75333 | 4402 ft | 267 kts | 174° |
| 2026-04-24 13:39 | 36.56980 | 28.76066 | 5148 ft | 271 kts | 148° |
| 2026-04-24 13:40 | 36.55648 | 28.77719 | 5895 ft | 276 kts | 121° |
| 2026-04-24 13:40 | 36.55053 | 28.79988 | 6606 ft | 279 kts | 93° |
| 2026-04-24 13:40 | 36.55357 | 28.82358 | 7316 ft | 282 kts | 65° |
| 2026-04-24 13:40 | 36.56506 | 28.84307 | 8011 ft | 283 kts | 38° |
| 2026-04-24 13:41 | 36.58217 | 28.85538 | 8705 ft | 285 kts | 25° |
| 2026-04-24 13:41 | 36.60011 | 28.86619 | 9419 ft | 288 kts | 25° |
| 2026-04-24 13:41 | 36.61825 | 28.87709 | 10111 ft | 291 kts | 25° |
| 2026-04-24 13:41 | 36.63699 | 28.88837 | 10418 ft | 310 kts | 25° |
| 2026-04-24 13:42 | 36.65712 | 28.90053 | 10554 ft | 332 kts | 25° |
| 2026-04-24 13:42 | 36.67862 | 28.91355 | 10685 ft | 353 kts | 25° |
| 2026-04-24 13:42 | 36.70119 | 28.92729 | 10960 ft | 367 kts | 25° |
| 2026-04-24 13:42 | 36.72428 | 28.94142 | 11509 ft | 372 kts | 25° |
| 2026-04-24 13:43 | 36.74762 | 28.95574 | 11939 ft | 375 kts | 25° |
| 2026-04-24 13:43 | 36.77114 | 28.97016 | 12293 ft | 379 kts | 25° |
| 2026-04-24 13:43 | 36.79490 | 28.98471 | 12850 ft | 382 kts | 25° |
| 2026-04-24 13:43 | 36.81855 | 28.99916 | 13388 ft | 386 kts | 25° |
| 2026-04-24 13:44 | 36.84273 | 29.01395 | 13949 ft | 389 kts | 25° |
| 2026-04-24 13:44 | 36.86710 | 29.02888 | 14500 ft | 392 kts | 25° |
| 2026-04-24 13:44 | 36.89174 | 29.04397 | 14974 ft | 397 kts | 25° |
| 2026-04-24 13:44 | 36.91661 | 29.05920 | 15513 ft | 399 kts | 25° |
| 2026-04-24 13:45 | 36.94167 | 29.07457 | 16014 ft | 403 kts | 25° |
| 2026-04-24 13:45 | 36.96695 | 29.09009 | 16483 ft | 406 kts | 26° |
| 2026-04-24 13:45 | 36.99240 | 29.10575 | 16949 ft | 409 kts | 26° |
| 2026-04-24 13:45 | 37.01806 | 29.12159 | 17393 ft | 413 kts | 26° |
| 2026-04-24 13:46 | 37.04396 | 29.13756 | 17855 ft | 415 kts | 26° |
| 2026-04-24 13:46 | 37.06992 | 29.15352 | 18358 ft | 416 kts | 25° |
| 2026-04-24 13:46 | 37.09592 | 29.16948 | 18795 ft | 419 kts | 25° |
| 2026-04-24 13:46 | 37.12219 | 29.18561 | 19199 ft | 422 kts | 25° |
| 2026-04-24 13:47 | 37.14863 | 29.20187 | 19625 ft | 425 kts | 26° |
| 2026-04-24 13:47 | 37.17519 | 29.21825 | 20084 ft | 426 kts | 26° |
| 2026-04-24 13:47 | 37.20185 | 29.23475 | 20509 ft | 429 kts | 26° |
| 2026-04-24 13:47 | 37.22867 | 29.25136 | 20908 ft | 431 kts | 26° |
| 2026-04-24 13:48 | 37.25571 | 29.26814 | 21299 ft | 434 kts | 26° |
| 2026-04-24 13:48 | 37.28287 | 29.28498 | 21666 ft | 437 kts | 26° |
| 2026-04-24 13:48 | 37.31019 | 29.30192 | 22044 ft | 439 kts | 26° |
| 2026-04-24 13:48 | 37.33779 | 29.31865 | 22403 ft | 442 kts | 24° |
| 2026-04-24 13:49 | 37.36604 | 29.33402 | 22745 ft | 444 kts | 21° |
| 2026-04-24 13:49 | 37.39486 | 29.34829 | 23092 ft | 446 kts | 20° |
| 2026-04-24 13:49 | 37.42362 | 29.36179 | 23436 ft | 448 kts | 20° |
| 2026-04-24 13:49 | 37.45301 | 29.37540 | 23789 ft | 450 kts | 20° |
| 2026-04-24 13:50 | 37.48242 | 29.38922 | 24137 ft | 452 kts | 20° |
| 2026-04-24 13:50 | 37.51183 | 29.40338 | 24470 ft | 455 kts | 20° |
| 2026-04-24 13:50 | 37.54137 | 29.41792 | 24793 ft | 457 kts | 21° |
| 2026-04-24 13:50 | 37.57100 | 29.43274 | 25098 ft | 459 kts | 21° |
| 2026-04-24 13:51 | 37.60095 | 29.44779 | 25369 ft | 463 kts | 21° |
| 2026-04-24 13:51 | 37.63098 | 29.46289 | 25622 ft | 466 kts | 21° |
| 2026-04-24 13:51 | 37.66111 | 29.47801 | 25892 ft | 469 kts | 21° |
| 2026-04-24 13:51 | 37.69144 | 29.49316 | 26169 ft | 471 kts | 21° |
| 2026-04-24 13:52 | 37.72200 | 29.50835 | 26456 ft | 472 kts | 21° |
| 2026-04-24 13:52 | 37.75260 | 29.52353 | 26730 ft | 473 kts | 21° |
| 2026-04-24 13:52 | 37.78330 | 29.53881 | 27043 ft | 473 kts | 21° |
| 2026-04-24 13:52 | 37.81391 | 29.55412 | 27289 ft | 474 kts | 21° |
| 2026-04-24 13:53 | 37.84461 | 29.56949 | 27511 ft | 476 kts | 21° |
| 2026-04-24 13:53 | 37.87539 | 29.58491 | 27769 ft | 476 kts | 21° |
| 2026-04-24 13:53 | 37.90619 | 29.60036 | 28039 ft | 476 kts | 21° |
| 2026-04-24 13:53 | 37.93690 | 29.61577 | 28320 ft | 476 kts | 21° |
| 2026-04-24 13:54 | 37.96779 | 29.63127 | 28584 ft | 476 kts | 21° |
| 2026-04-24 13:54 | 37.99859 | 29.64674 | 28867 ft | 475 kts | 21° |
| 2026-04-24 13:54 | 38.02931 | 29.66219 | 29160 ft | 475 kts | 21° |
| 2026-04-24 13:54 | 38.05990 | 29.67759 | 29454 ft | 474 kts | 21° |
| 2026-04-24 13:55 | 38.09061 | 29.69306 | 29780 ft | 472 kts | 21° |
| 2026-04-24 13:55 | 38.12116 | 29.70843 | 30094 ft | 471 kts | 21° |
| 2026-04-24 13:55 | 38.15152 | 29.72371 | 30389 ft | 470 kts | 21° |
| 2026-04-24 13:55 | 38.18184 | 29.73898 | 30676 ft | 469 kts | 20° |
| 2026-04-24 13:56 | 38.21296 | 29.75152 | 30937 ft | 468 kts | 13° |
| 2026-04-24 13:56 | 38.24494 | 29.75971 | 31192 ft | 467 kts | 10° |
| 2026-04-24 13:56 | 38.27686 | 29.76744 | 31453 ft | 467 kts | 10° |
| 2026-04-24 13:56 | 38.30875 | 29.77520 | 31711 ft | 466 kts | 10° |
| 2026-04-24 13:57 | 38.34063 | 29.78298 | 31960 ft | 466 kts | 10° |
| 2026-04-24 13:57 | 38.37211 | 29.79072 | 32173 ft | 467 kts | 10° |
| 2026-04-24 13:57 | 38.40402 | 29.79858 | 32351 ft | 468 kts | 10° |
| 2026-04-24 13:57 | 38.43603 | 29.80649 | 32549 ft | 469 kts | 10° |
| 2026-04-24 13:58 | 38.46798 | 29.81436 | 32777 ft | 468 kts | 10° |
| 2026-04-24 13:58 | 38.50005 | 29.82222 | 32999 ft | 468 kts | 10° |
| 2026-04-24 13:58 | 38.53202 | 29.83007 | 33224 ft | 468 kts | 10° |
| 2026-04-24 13:58 | 38.56403 | 29.83796 | 33423 ft | 468 kts | 10° |
| 2026-04-24 13:59 | 38.59601 | 29.84588 | 33648 ft | 468 kts | 10° |
| 2026-04-24 13:59 | 38.62786 | 29.85376 | 33914 ft | 466 kts | 10° |
| 2026-04-24 13:59 | 38.65962 | 29.86161 | 34190 ft | 464 kts | 10° |
| 2026-04-24 13:59 | 38.69132 | 29.86945 | 34429 ft | 463 kts | 10° |
| 2026-04-24 14:00 | 38.72297 | 29.87731 | 34636 ft | 463 kts | 10° |
| 2026-04-24 14:00 | 38.75456 | 29.88514 | 34854 ft | 462 kts | 10° |
| 2026-04-24 14:00 | 38.78617 | 29.89297 | 35054 ft | 462 kts | 10° |
| 2026-04-24 14:00 | 38.81774 | 29.90078 | 35283 ft | 462 kts | 10° |
| 2026-04-24 14:01 | 38.84929 | 29.90860 | 35503 ft | 461 kts | 10° |
| 2026-04-24 14:01 | 38.88062 | 29.91640 | 35713 ft | 460 kts | 11° |
| 2026-04-24 14:01 | 38.91209 | 29.92429 | 35891 ft | 461 kts | 11° |
| 2026-04-24 14:01 | 38.94358 | 29.93219 | 35999 ft | 462 kts | 11° |
| 2026-04-24 14:02 | 39.00681 | 29.94799 | 36011 ft | 462 kts | 10° |
| 2026-04-24 14:02 | 39.06998 | 29.96374 | 36007 ft | 463 kts | 10° |
| 2026-04-24 14:03 | 39.13395 | 29.96807 | 36009 ft | 460 kts | 352° |
| 2026-04-24 14:03 | 39.19490 | 29.94598 | 36008 ft | 459 kts | 335° |
| 2026-04-24 14:04 | 39.25338 | 29.91275 | 36013 ft | 459 kts | 336° |
| 2026-04-24 14:04 | 39.31203 | 29.87972 | 36014 ft | 460 kts | 336° |
| 2026-04-24 14:05 | 39.37080 | 29.84650 | 36015 ft | 461 kts | 336° |
| 2026-04-24 14:05 | 39.42970 | 29.81329 | 36011 ft | 462 kts | 336° |
| 2026-04-24 14:06 | 39.48870 | 29.78019 | 36021 ft | 462 kts | 336° |
| 2026-04-24 14:06 | 39.54762 | 29.74709 | 36031 ft | 462 kts | 336° |
| 2026-04-24 14:07 | 39.60662 | 29.71387 | 35968 ft | 462 kts | 336° |
| 2026-04-24 14:07 | 39.63611 | 29.69722 | 35714 ft | 460 kts | 336° |
| 2026-04-24 14:07 | 39.66532 | 29.68070 | 35464 ft | 460 kts | 336° |
| 2026-04-24 14:08 | 39.69477 | 29.66401 | 35215 ft | 461 kts | 336° |
| 2026-04-24 14:08 | 39.72416 | 29.64738 | 34966 ft | 460 kts | 336° |
| 2026-04-24 14:08 | 39.74361 | 29.63641 | 34800 ft | 460 kts | 336° |
| 2026-04-24 14:08 | 39.77289 | 29.61989 | 34550 ft | 460 kts | 336° |
| 2026-04-24 14:09 | 39.80230 | 29.60323 | 34273 ft | 460 kts | 336° |
| 2026-04-24 14:09 | 39.83177 | 29.58650 | 33438 ft | 463 kts | 336° |
| 2026-04-24 14:09 | 39.86134 | 29.56969 | 32553 ft | 466 kts | 336° |
| 2026-04-24 14:09 | 39.89119 | 29.55278 | 31635 ft | 469 kts | 337° |
| 2026-04-24 14:10 | 39.92234 | 29.53944 | 30668 ft | 472 kts | 346° |
| 2026-04-24 14:10 | 39.95480 | 29.53119 | 29602 ft | 476 kts | 349° |
| 2026-04-24 14:10 | 39.98742 | 29.52334 | 28507 ft | 479 kts | 349° |
| 2026-04-24 14:10 | 40.02031 | 29.51541 | 27436 ft | 480 kts | 349° |
| 2026-04-24 14:11 | 40.05323 | 29.50745 | 26192 ft | 481 kts | 349° |
| 2026-04-24 14:11 | 40.08561 | 29.49962 | 25226 ft | 458 kts | 349° |
| 2026-04-24 14:11 | 40.14386 | 29.48547 | 24178 ft | 406 kts | 349° |
| 2026-04-24 14:12 | 40.17111 | 29.47879 | 23908 ft | 397 kts | 347° |
| 2026-04-24 14:12 | 40.19768 | 29.46865 | 23665 ft | 399 kts | 338° |
| 2026-04-24 14:12 | 40.22238 | 29.45257 | 23413 ft | 395 kts | 327° |
| 2026-04-24 14:12 | 40.24499 | 29.43232 | 23157 ft | 393 kts | 324° |
| 2026-04-24 14:13 | 40.26741 | 29.41187 | 22903 ft | 393 kts | 324° |
| 2026-04-24 14:13 | 40.28989 | 29.39167 | 22668 ft | 391 kts | 327° |
| 2026-04-24 14:13 | 40.31481 | 29.37721 | 22408 ft | 391 kts | 346° |
| 2026-04-24 14:13 | 40.34164 | 29.37388 | 22155 ft | 390 kts | 4° |
| 2026-04-24 14:14 | 40.36796 | 29.38177 | 21904 ft | 390 kts | 22° |
| 2026-04-24 14:14 | 40.39107 | 29.40006 | 21660 ft | 389 kts | 41° |
| 2026-04-24 14:14 | 40.42596 | 29.45373 | 21153 ft | 386 kts | 51° |
| 2026-04-24 14:15 | 40.44360 | 29.47966 | 20907 ft | 384 kts | 41° |
| 2026-04-24 14:15 | 40.46484 | 29.50036 | 20658 ft | 381 kts | 29° |
| 2026-04-24 14:15 | 40.48893 | 29.51461 | 20409 ft | 379 kts | 17° |
| 2026-04-24 14:15 | 40.51466 | 29.52189 | 20123 ft | 378 kts | 5° |
| 2026-04-24 14:16 | 40.53983 | 29.52305 | 19666 ft | 376 kts | 359° |
| 2026-04-24 14:16 | 40.56585 | 29.52319 | 19156 ft | 372 kts | 359° |
| 2026-04-24 14:16 | 40.59165 | 29.52328 | 18653 ft | 369 kts | 359° |
| 2026-04-24 14:17 | 40.64237 | 29.52350 | 17872 ft | 356 kts | 359° |
| 2026-04-24 14:17 | 40.66660 | 29.52524 | 17738 ft | 342 kts | 12° |
| 2026-04-24 14:17 | 40.70338 | 29.55900 | 17332 ft | 324 kts | 59° |
| 2026-04-24 14:18 | 40.71090 | 29.58666 | 17025 ft | 324 kts | 82° |
| 2026-04-24 14:18 | 40.71304 | 29.61625 | 16690 ft | 324 kts | 85° |
| 2026-04-24 14:18 | 40.71497 | 29.64570 | 16354 ft | 322 kts | 85° |
| 2026-04-24 14:18 | 40.71687 | 29.67505 | 16019 ft | 321 kts | 85° |
| 2026-04-24 14:19 | 40.71877 | 29.70434 | 15691 ft | 319 kts | 85° |
| 2026-04-24 14:19 | 40.72066 | 29.73328 | 15356 ft | 317 kts | 85° |
| 2026-04-24 14:19 | 40.72257 | 29.76180 | 15028 ft | 316 kts | 85° |
| 2026-04-24 14:19 | 40.72450 | 29.79057 | 14682 ft | 314 kts | 85° |
| 2026-04-24 14:20 | 40.72644 | 29.81917 | 14332 ft | 312 kts | 85° |
| 2026-04-24 14:20 | 40.72836 | 29.84764 | 13991 ft | 311 kts | 85° |
| 2026-04-24 14:20 | 40.73026 | 29.87595 | 13649 ft | 309 kts | 85° |
| 2026-04-24 14:20 | 40.73212 | 29.90411 | 13311 ft | 308 kts | 85° |
| 2026-04-24 14:21 | 40.73396 | 29.93214 | 12970 ft | 306 kts | 85° |
| 2026-04-24 14:21 | 40.73577 | 29.96002 | 12634 ft | 304 kts | 85° |
| 2026-04-24 14:21 | 40.73850 | 29.98759 | 12295 ft | 303 kts | 76° |
| 2026-04-24 14:21 | 40.74575 | 30.01347 | 11960 ft | 301 kts | 62° |
| 2026-04-24 14:22 | 40.75731 | 30.03625 | 11637 ft | 299 kts | 51° |
| 2026-04-24 14:22 | 40.77007 | 30.05784 | 11296 ft | 298 kts | 51° |
| 2026-04-24 14:22 | 40.79526 | 30.10086 | 10641 ft | 295 kts | 52° |
| 2026-04-24 14:23 | 40.80775 | 30.12227 | 10305 ft | 294 kts | 52° |
| 2026-04-24 14:23 | 40.82009 | 30.14344 | 10120 ft | 285 kts | 52° |
| 2026-04-24 14:23 | 40.83282 | 30.16221 | 10009 ft | 273 kts | 38° |
| 2026-04-24 14:23 | 40.84906 | 30.17514 | 10012 ft | 269 kts | 20° |
| 2026-04-24 14:24 | 40.86683 | 30.18082 | 10016 ft | 267 kts | 3° |
| 2026-04-24 14:24 | 40.88541 | 30.18251 | 10012 ft | 268 kts | 3° |
| 2026-04-24 14:24 | 40.90409 | 30.18422 | 10015 ft | 268 kts | 3° |
| 2026-04-24 14:24 | 40.92263 | 30.18597 | 10019 ft | 268 kts | 3° |
| 2026-04-24 14:25 | 40.94130 | 30.18777 | 10014 ft | 268 kts | 3° |
| 2026-04-24 14:25 | 40.95985 | 30.18946 | 10015 ft | 268 kts | 0° |
| 2026-04-24 14:25 | 40.97810 | 30.18570 | 9863 ft | 266 kts | 336° |
| 2026-04-24 14:25 | 40.99323 | 30.17257 | 9608 ft | 258 kts | 312° |
| 2026-04-24 14:26 | 41.00271 | 30.15288 | 9358 ft | 252 kts | 289° |
| 2026-04-24 14:26 | 41.00590 | 30.13034 | 9110 ft | 248 kts | 275° |
| 2026-04-24 14:26 | 41.00759 | 30.10775 | 8861 ft | 247 kts | 275° |
| 2026-04-24 14:26 | 41.00934 | 30.08515 | 8610 ft | 246 kts | 276° |
| 2026-04-24 14:27 | 41.01113 | 30.06290 | 8361 ft | 245 kts | 276° |
| 2026-04-24 14:27 | 41.01297 | 30.04046 | 8107 ft | 244 kts | 276° |
| 2026-04-24 14:27 | 41.01477 | 30.01817 | 7860 ft | 244 kts | 276° |
| 2026-04-24 14:27 | 41.01654 | 29.99584 | 7609 ft | 243 kts | 276° |
| 2026-04-24 14:28 | 41.01829 | 29.97366 | 7358 ft | 241 kts | 276° |
| 2026-04-24 14:28 | 41.02002 | 29.95162 | 7107 ft | 240 kts | 276° |
| 2026-04-24 14:28 | 41.02173 | 29.92956 | 6858 ft | 240 kts | 276° |
| 2026-04-24 14:28 | 41.02342 | 29.90768 | 6605 ft | 239 kts | 276° |
| 2026-04-24 14:29 | 41.02509 | 29.88582 | 6354 ft | 238 kts | 275° |
| 2026-04-24 14:29 | 41.02675 | 29.86410 | 6104 ft | 237 kts | 276° |
| 2026-04-24 14:29 | 41.02842 | 29.84238 | 5853 ft | 237 kts | 276° |
| 2026-04-24 14:29 | 41.03010 | 29.82068 | 5601 ft | 236 kts | 276° |
| 2026-04-24 14:30 | 41.03120 | 29.80648 | 5433 ft | 235 kts | 276° |
| 2026-04-24 14:30 | 41.03343 | 29.77779 | 5111 ft | 233 kts | 276° |
| 2026-04-24 14:30 | 41.03510 | 29.75642 | 5016 ft | 233 kts | 276° |
| 2026-04-24 14:30 | 41.03674 | 29.73505 | 5015 ft | 234 kts | 276° |
| 2026-04-24 14:31 | 41.03829 | 29.71361 | 5017 ft | 234 kts | 272° |
| 2026-04-24 14:31 | 41.03650 | 29.69253 | 5016 ft | 226 kts | 254° |
| 2026-04-24 14:31 | 41.03033 | 29.67418 | 4914 ft | 212 kts | 239° |
| 2026-04-24 14:31 | 41.02276 | 29.65767 | 4657 ft | 210 kts | 239° |
| 2026-04-24 14:32 | 41.01519 | 29.64100 | 4256 ft | 211 kts | 239° |
| 2026-04-24 14:32 | 41.00772 | 29.62450 | 3850 ft | 213 kts | 239° |
| 2026-04-24 14:32 | 41.00014 | 29.60774 | 3567 ft | 209 kts | 239° |
| 2026-04-24 14:32 | 40.99276 | 29.59140 | 3512 ft | 205 kts | 239° |
| 2026-04-24 14:33 | 40.98546 | 29.57527 | 3515 ft | 204 kts | 239° |
| 2026-04-24 14:33 | 40.97867 | 29.55886 | 3515 ft | 204 kts | 244° |
| 2026-04-24 14:33 | 40.97266 | 29.54240 | 3521 ft | 193 kts | 245° |
| 2026-04-24 14:33 | 40.96693 | 29.52658 | 3520 ft | 189 kts | 245° |
| 2026-04-24 14:34 | 40.96124 | 29.51098 | 3463 ft | 188 kts | 245° |
| 2026-04-24 14:34 | 40.95558 | 29.49547 | 3249 ft | 186 kts | 245° |
| 2026-04-24 14:34 | 40.95000 | 29.48020 | 2983 ft | 182 kts | 244° |
| 2026-04-24 14:34 | 40.94467 | 29.46563 | 2727 ft | 170 kts | 245° |
| 2026-04-24 14:35 | 40.93959 | 29.45177 | 2462 ft | 165 kts | 245° |
| 2026-04-24 14:35 | 40.93463 | 29.43822 | 2202 ft | 163 kts | 245° |
| 2026-04-24 14:35 | 40.92980 | 29.42502 | 1952 ft | 155 kts | 244° |
| 2026-04-24 14:35 | 40.92519 | 29.41245 | 1719 ft | 149 kts | 245° |
| 2026-04-24 14:36 | 40.92068 | 29.40022 | 1476 ft | 147 kts | 244° |
| 2026-04-24 14:36 | 40.91631 | 29.38858 | 1273 ft | 147 kts | 244° |
| 2026-04-24 14:36 | 40.91176 | 29.37632 | 1077 ft | 147 kts | 245° |
| 2026-04-24 14:36 | 40.90740 | 29.36415 | 817 ft | 146 kts | 245° |
| 2026-04-24 14:37 | 40.90294 | 29.35211 | 621 ft | 146 kts | 245° |
| 2026-04-24 14:37 | 40.89860 | 29.34002 | 366 ft | 145 kts | 245° |
| 2026-04-24 14:37 | 40.89441 | 29.32867 | 303 ft | 124 kts | 243° |
| 2026-04-24 14:37 | 40.89175 | 29.32144 | 305 ft | 36 kts | 245° |
| 2026-04-24 14:38 | 40.89117 | 29.31881 | 309 ft | 29 kts | 264° |
| 2026-04-24 14:38 | 40.89121 | 29.31735 | 309 ft | 0 kts | 280° |
| 2026-04-24 14:38 | 40.89123 | 29.31723 | 309 ft | 2 kts | 281° |
| 2026-04-24 14:39 | 40.89127 | 29.31692 | 308 ft | 4 kts | 275° |
| 2026-04-24 14:39 | 40.89130 | 29.31634 | 307 ft | 8 kts | 273° |
| 2026-04-24 14:39 | 40.89132 | 29.31555 | 307 ft | 10 kts | 271° |
| 2026-04-24 14:39 | 40.89146 | 29.31464 | 308 ft | 11 kts | 307° |
| 2026-04-24 14:40 | 40.89216 | 29.31426 | 308 ft | 11 kts | 15° |
| 2026-04-24 14:40 | 40.89291 | 29.31463 | 309 ft | 13 kts | 349° |
| 2026-04-24 14:40 | 40.89378 | 29.31408 | 306 ft | 15 kts | 333° |
| 2026-04-24 14:40 | 40.89468 | 29.31347 | 313 ft | 14 kts | 333° |
| 2026-04-24 14:41 | 40.89553 | 29.31297 | 313 ft | 13 kts | 336° |
| 2026-04-24 14:41 | 40.89631 | 29.31248 | 314 ft | 13 kts | 335° |
| 2026-04-24 14:41 | 40.89710 | 29.31199 | 319 ft | 10 kts | 331° |
| 2026-04-24 14:41 | 40.89780 | 29.31133 | 316 ft | 15 kts | 326° |
| 2026-04-24 14:42 | 40.89837 | 29.31091 | 320 ft | 13 kts | 334° |
| 2026-04-24 14:42 | 40.89858 | 29.31079 | 320 ft | 2 kts | 336° |
| 2026-04-24 14:42 | 40.89911 | 29.31056 | 320 ft | 13 kts | 347° |
| 2026-04-24 14:42 | 40.89994 | 29.31013 | 321 ft | 13 kts | 335° |
| 2026-04-24 14:43 | 40.90081 | 29.31001 | 321 ft | 15 kts | 30° |
| 2026-04-24 14:43 | 40.90141 | 29.31127 | 321 ft | 17 kts | 64° |
| 2026-04-24 14:43 | 40.90196 | 29.31277 | 320 ft | 19 kts | 64° |
| 2026-04-24 14:43 | 40.90255 | 29.31438 | 321 ft | 17 kts | 63° |
| 2026-04-24 14:44 | 40.90340 | 29.31481 | 321 ft | 13 kts | 338° |
| 2026-04-24 14:44 | 40.90420 | 29.31431 | 321 ft | 9 kts | 348° |
| 2026-04-24 14:44 | 40.90466 | 29.31481 | 321 ft | 10 kts | 60° |
| 2026-04-24 14:44 | 40.90494 | 29.31557 | 321 ft | 8 kts | 62° |
| 2026-04-24 14:45 | 40.90518 | 29.31621 | 321 ft | 7 kts | 65° |
| 2026-04-24 14:45 | 40.90542 | 29.31661 | 321 ft | 4 kts | 12° |
| 2026-04-24 14:45 | 40.90577 | 29.31649 | 320 ft | 6 kts | 338° |
| 2026-04-24 14:45 | 40.90606 | 29.31632 | 321 ft | 3 kts | 335° |